createdAt,value
2022-09-27T00:04:30.185Z,12.40
2022-09-27T00:10:01.301Z,12.38
2022-09-27T00:15:32.444Z,12.39
2022-09-27T00:21:12.730Z,12.34
2022-09-27T00:26:44.243Z,12.30
2022-09-27T00:32:15.160Z,12.31
2022-09-27T00:37:48.946Z,12.26
2022-09-27T00:43:22.651Z,12.27
2022-09-27T00:49:04.719Z,12.25
2022-09-27T00:54:39.543Z,12.23
2022-09-27T01:00:12.681Z,12.23
2022-09-27T01:05:44.092Z,12.22
2022-09-27T01:11:27.526Z,12.22
2022-09-27T01:17:27.882Z,12.21
2022-09-27T01:23:29.988Z,12.19
2022-09-27T01:29:29.167Z,12.20
2022-09-27T01:35:08.729Z,12.14
2022-09-27T01:40:50.934Z,12.11
2022-09-27T01:46:46.532Z,12.13
2022-09-27T01:52:31.362Z,12.09
2022-09-27T01:58:15.010Z,12.08
2022-09-27T02:03:49.207Z,12.08
2022-09-27T02:09:57.821Z,12.07
2022-09-27T02:16:03.619Z,12.03
2022-09-27T02:22:17.424Z,11.99
2022-09-27T02:27:48.688Z,11.98
2022-09-27T02:33:30.782Z,11.98
2022-09-27T02:39:02.213Z,11.99
2022-09-27T02:44:36.532Z,11.97
2022-09-27T02:50:08.181Z,11.96
2022-09-27T02:55:51.590Z,11.95
2022-09-27T03:02:10.976Z,11.94
2022-09-27T03:08:12.734Z,11.89
2022-09-27T03:14:01.787Z,11.89
2022-09-27T03:19:37.692Z,11.92
2022-09-27T03:25:32.220Z,11.91
2022-09-27T03:31:03.838Z,11.88
2022-09-27T03:36:54.201Z,11.89
2022-09-27T03:42:25.515Z,11.86
2022-09-27T03:47:58.061Z,11.84
2022-09-27T03:53:29.372Z,11.84
2022-09-27T03:59:01.348Z,11.84
2022-09-27T04:04:35.681Z,11.82
2022-09-27T04:10:07.605Z,11.83
2022-09-27T04:15:40.229Z,11.82
2022-09-27T04:21:37.516Z,11.77
2022-09-27T04:27:10.872Z,11.77
2022-09-27T04:32:46.556Z,11.75
2022-09-27T04:38:36.604Z,11.73
2022-09-27T04:44:08.051Z,11.74
2022-09-27T04:49:39.811Z,11.77
2022-09-27T04:55:11.723Z,11.73
2022-09-27T05:00:43.470Z,11.73
2022-09-27T05:06:33.832Z,11.76
2022-09-27T05:12:13.771Z,11.73
2022-09-27T05:18:20.453Z,11.70
2022-09-27T05:24:17.762Z,11.70
2022-09-27T05:29:49.700Z,11.71
2022-09-27T05:35:30.777Z,11.76
2022-09-27T05:41:04.379Z,11.76
2022-09-27T05:46:40.186Z,11.77
2022-09-27T05:52:16.088Z,11.79
2022-09-27T05:58:02.997Z,11.79
2022-09-27T06:03:43.170Z,11.81
2022-09-27T06:09:44.445Z,11.84
2022-09-27T06:15:17.014Z,11.84
2022-09-27T06:20:49.848Z,11.86
2022-09-27T06:26:22.248Z,11.93
2022-09-27T06:32:03.755Z,11.99
2022-09-27T06:37:47.584Z,12.02
2022-09-27T06:43:20.738Z,12.01
2022-09-27T06:49:12.973Z,12.06
2022-09-27T06:54:45.383Z,12.06
2022-09-27T07:00:27.340Z,12.09
2022-09-27T07:06:34.672Z,12.13
2022-09-27T07:12:24.844Z,12.17
2022-09-27T07:17:58.931Z,12.25
2022-09-27T07:23:32.778Z,12.30
2022-09-27T07:29:04.289Z,12.34
2022-09-27T07:34:36.620Z,12.37
2022-09-27T07:40:09.710Z,12.42
2022-09-27T07:45:41.766Z,12.42
2022-09-27T07:51:35.269Z,12.44
2022-09-27T07:57:30.276Z,12.44
2022-09-27T08:03:07.789Z,12.46
2022-09-27T08:08:39.678Z,12.46
2022-09-27T08:14:11.894Z,12.45
2022-09-27T08:19:50.103Z,12.38
2022-09-27T08:25:44.944Z,12.41
2022-09-27T08:31:31.655Z,12.43
2022-09-27T08:37:03.609Z,12.48
2022-09-27T08:42:48.890Z,12.49
2022-09-27T08:48:21.223Z,12.50
2022-09-27T08:53:58.545Z,12.52
2022-09-27T08:59:42.766Z,12.55
2022-09-27T09:05:26.493Z,12.57
2022-09-27T09:11:27.012Z,12.58
2022-09-27T09:17:19.876Z,12.61
2022-09-27T09:23:11.045Z,12.64
2022-09-27T09:29:12.563Z,12.65
2022-09-27T09:34:50.132Z,12.69
2022-09-27T09:40:46.042Z,12.73
2022-09-27T09:46:28.085Z,12.79
2022-09-27T09:52:09.083Z,12.80
2022-09-27T09:57:52.722Z,12.82
2022-09-27T10:03:27.925Z,12.84
2022-09-27T10:09:00.197Z,12.88
2022-09-27T10:14:47.541Z,12.91
2022-09-27T10:20:40.362Z,12.96
2022-09-27T10:26:11.822Z,13.01
2022-09-27T10:31:50.505Z,13.04
2022-09-27T10:37:24.645Z,13.09
2022-09-27T10:43:38.608Z,13.12
2022-09-27T10:49:30.578Z,13.15
2022-09-27T10:55:20.525Z,13.17
2022-09-27T11:01:06.490Z,13.20
2022-09-27T11:06:51.642Z,13.21
2022-09-27T11:12:25.422Z,13.19
2022-09-27T11:18:12.425Z,13.19
2022-09-27T11:24:04.329Z,13.18
2022-09-27T11:30:02.202Z,13.19
2022-09-27T11:36:10.779Z,13.29
2022-09-27T11:41:55.778Z,13.36
2022-09-27T11:47:34.797Z,13.51
2022-09-27T11:53:24.909Z,13.60
2022-09-27T11:59:20.188Z,13.51
2022-09-27T12:05:14.319Z,13.41
2022-09-27T12:10:52.404Z,13.39
2022-09-27T12:16:24.494Z,13.41
2022-09-27T12:21:58.847Z,13.38
2022-09-27T12:27:41.698Z,13.34
2022-09-27T12:33:29.681Z,13.30
2022-09-27T12:39:05.467Z,13.33
2022-09-27T12:44:40.743Z,13.41
2022-09-27T12:50:32.829Z,13.45
2022-09-27T12:56:25.263Z,13.47
2022-09-27T13:02:27.688Z,13.55
2022-09-27T13:08:03.535Z,13.60
2022-09-27T13:13:38.089Z,13.57
2022-09-27T13:19:36.304Z,13.57
2022-09-27T13:25:48.069Z,13.58
2022-09-27T13:32:15.124Z,13.56
2022-09-27T13:38:23.565Z,13.59
2022-09-27T13:44:03.724Z,13.59
2022-09-27T13:49:50.843Z,13.60
2022-09-27T13:55:48.305Z,13.61
2022-09-27T14:01:48.687Z,13.60
2022-09-27T14:07:35.858Z,13.58
2022-09-27T14:13:07.810Z,13.53
2022-09-27T14:18:53.395Z,13.51
2022-09-27T14:24:59.524Z,13.42
2022-09-27T14:31:18.091Z,13.35
2022-09-27T14:37:38.330Z,13.32
2022-09-27T14:43:23.860Z,13.30
2022-09-27T14:48:56.467Z,13.25
2022-09-27T14:54:30.720Z,13.22
2022-09-27T15:00:16.035Z,13.18
2022-09-27T15:05:49.032Z,13.17
2022-09-27T15:11:20.656Z,13.15
2022-09-27T15:16:53.145Z,13.16
2022-09-27T15:22:47.667Z,13.15
2022-09-27T15:28:19.897Z,13.15
2022-09-27T15:33:56.167Z,13.12
2022-09-27T15:39:32.520Z,13.12
2022-09-27T15:45:42.500Z,13.07
2022-09-27T15:51:46.543Z,13.05
2022-09-27T15:57:17.584Z,13.05
2022-09-27T16:02:48.612Z,13.05
2022-09-27T16:08:19.643Z,13.07
2022-09-27T16:13:53.079Z,13.05
2022-09-27T16:19:24.015Z,13.02
2022-09-27T16:24:56.450Z,12.96
2022-09-27T16:30:28.106Z,12.91
2022-09-27T16:36:07.086Z,12.86
2022-09-27T16:41:41.482Z,12.82
2022-09-27T16:47:12.287Z,12.75
2022-09-27T16:52:47.661Z,12.69
2022-09-27T16:58:18.937Z,12.63
2022-09-27T17:03:55.581Z,12.58
2022-09-27T17:09:28.300Z,12.54
2022-09-27T17:14:59.887Z,12.52
2022-09-27T17:20:31.301Z,12.51
2022-09-27T17:26:08.492Z,12.47
2022-09-27T17:31:41.150Z,12.46
2022-09-27T17:37:12.213Z,12.36
2022-09-27T17:42:43.495Z,12.33
2022-09-27T17:48:33.415Z,12.35
2022-09-27T17:54:07.444Z,12.29
2022-09-27T17:59:38.132Z,12.27
2022-09-27T18:05:10.011Z,12.24
2022-09-27T18:10:41.260Z,12.24
2022-09-27T18:16:14.867Z,12.25
2022-09-27T18:21:46.357Z,12.27
2022-09-27T18:27:21.494Z,12.29
2022-09-27T18:32:53.147Z,12.31
2022-09-27T18:38:24.216Z,12.28
2022-09-27T18:43:59.975Z,12.24
2022-09-27T18:49:33.995Z,12.24
2022-09-27T18:55:05.789Z,12.17
2022-09-27T19:00:37.165Z,12.13
2022-09-27T19:06:12.002Z,12.11
2022-09-27T19:11:43.154Z,12.13
2022-09-27T19:17:14.639Z,12.06
2022-09-27T19:23:12.772Z,11.98
2022-09-27T19:28:47.235Z,11.94
2022-09-27T19:34:18.663Z,11.96
2022-09-27T19:39:54.729Z,11.95
2022-09-27T19:45:26.676Z,11.95
2022-09-27T19:50:59.689Z,11.94
2022-09-27T19:56:30.536Z,11.95
2022-09-27T20:02:01.976Z,11.92
2022-09-27T20:07:35.181Z,11.93
2022-09-27T20:13:06.650Z,11.88
2022-09-27T20:18:45.245Z,11.83
2022-09-27T20:24:16.341Z,11.78
2022-09-27T20:29:48.287Z,11.73
2022-09-27T20:35:19.418Z,11.65
2022-09-27T20:40:55.600Z,11.56
2022-09-27T20:46:37.457Z,11.49
2022-09-27T20:52:08.806Z,11.45
2022-09-27T20:57:56.492Z,11.43
2022-09-27T21:03:28.216Z,11.40
2022-09-27T21:09:00.228Z,11.38
2022-09-27T21:14:31.054Z,11.34
2022-09-27T21:20:02.826Z,11.30
2022-09-27T21:25:34.076Z,11.27
2022-09-27T21:31:21.613Z,11.24
2022-09-27T21:36:53.797Z,11.20
2022-09-27T21:48:51.145Z,11.18
2022-09-27T21:54:22.885Z,11.17
2022-09-27T21:59:54.155Z,11.15
2022-09-27T22:05:25.140Z,11.12
2022-09-27T22:10:56.301Z,11.09
2022-09-27T22:16:27.742Z,11.08
2022-09-27T22:21:59.219Z,11.03
2022-09-27T22:27:30.035Z,11.00
2022-09-27T22:33:01.533Z,10.96
2022-09-27T22:38:32.895Z,10.95
2022-09-27T22:44:04.096Z,10.92
2022-09-27T22:49:35.350Z,10.88
2022-09-27T22:55:07.255Z,10.88
2022-09-27T23:00:39.042Z,10.87
2022-09-27T23:06:10.833Z,10.83
2022-09-27T23:11:42.231Z,10.81
2022-09-27T23:17:14.271Z,10.78
2022-09-27T23:22:45.687Z,10.75
2022-09-27T23:28:17.153Z,10.73
2022-09-27T23:33:50.212Z,10.72
2022-09-27T23:39:21.466Z,10.66
2022-09-27T23:44:53.675Z,10.66
2022-09-27T23:50:25.678Z,10.61
2022-09-27T23:56:16.988Z,10.59
